createdAt,value
2023-04-09T00:00:49.432Z,36.40
2023-04-09T00:01:51.905Z,34.88
2023-04-09T00:02:53.577Z,33.58
2023-04-09T00:03:56.444Z,36.20
2023-04-09T00:04:58.182Z,35.50
2023-04-09T00:06:02.208Z,34.72
2023-04-09T00:07:03.709Z,38.08
2023-04-09T00:08:06.512Z,38.00
2023-04-09T00:09:08.069Z,37.40
2023-04-09T00:10:10.886Z,36.60
2023-04-09T00:11:12.397Z,38.42
2023-04-09T00:12:14.892Z,36.10
2023-04-09T00:13:22.575Z,40.00
2023-04-09T00:14:31.029Z,41.25
2023-04-09T00:15:32.518Z,37.80
2023-04-09T00:16:35.048Z,40.83
2023-04-09T00:17:36.777Z,42.00
2023-04-09T00:18:39.295Z,38.92
2023-04-09T00:19:40.880Z,43.90
2023-04-09T00:20:44.247Z,43.92
2023-04-09T00:21:48.263Z,43.75
2023-04-09T00:22:51.905Z,43.70
2023-04-09T00:23:53.426Z,45.95
2023-04-09T00:24:55.999Z,44.50
2023-04-09T00:25:57.550Z,41.40
2023-04-09T00:27:00.043Z,42.90
2023-04-09T00:28:01.689Z,43.47
2023-04-09T00:29:04.336Z,47.28
2023-04-09T00:30:07.259Z,41.70
2023-04-09T00:31:09.906Z,47.17
2023-04-09T00:32:11.446Z,44.13
2023-04-09T00:33:13.907Z,46.00
2023-04-09T00:34:15.868Z,45.88
2023-04-09T00:35:18.490Z,48.42
2023-04-09T00:36:19.995Z,53.47
2023-04-09T00:37:23.835Z,43.75
2023-04-09T00:38:25.403Z,45.13
2023-04-09T00:39:27.943Z,52.92
2023-04-09T00:40:29.582Z,44.80
2023-04-09T00:41:32.044Z,46.85
2023-04-09T00:42:34.517Z,44.03
2023-04-09T00:43:39.520Z,48.92
2023-04-09T00:44:41.077Z,45.72
2023-04-09T00:45:43.569Z,49.00
2023-04-09T00:46:45.249Z,48.40
2023-04-09T00:47:47.913Z,45.03
2023-04-09T00:48:49.720Z,47.47
2023-04-09T00:49:52.427Z,48.30
2023-04-09T00:50:54.049Z,48.80
2023-04-09T00:51:56.860Z,46.03
2023-04-09T00:53:00.470Z,43.20
2023-04-09T00:54:03.117Z,47.55
2023-04-09T00:55:06.007Z,45.60
2023-04-09T00:56:09.175Z,47.53
2023-04-09T00:57:11.296Z,46.92
2023-04-09T00:58:14.758Z,50.75
2023-04-09T00:59:16.474Z,46.35
2023-04-09T01:00:19.322Z,46.42
2023-04-09T01:01:20.912Z,48.85
2023-04-09T01:02:23.847Z,42.88
2023-04-09T01:03:25.862Z,46.42
2023-04-09T01:04:28.535Z,45.15
2023-04-09T01:05:37.950Z,44.25
2023-04-09T01:06:52.772Z,47.55
2023-04-09T01:08:08.783Z,41.80
2023-04-09T01:09:19.139Z,44.88
2023-04-09T01:10:28.593Z,35.40
2023-04-09T01:11:37.004Z,48.47
2023-04-09T01:12:51.222Z,43.92
2023-04-09T01:14:05.351Z,43.55
2023-04-09T01:15:09.910Z,41.60
2023-04-09T01:16:16.757Z,42.15
2023-04-09T01:17:24.348Z,41.50
2023-04-09T01:18:31.973Z,41.72
2023-04-09T01:19:42.805Z,42.28
2023-04-09T01:20:53.045Z,43.15
2023-04-09T01:21:57.832Z,43.97
2023-04-09T01:23:08.490Z,43.92
2023-04-09T01:24:21.189Z,31.08
2023-04-09T01:25:38.572Z,41.15
2023-04-09T01:26:54.764Z,44.92
2023-04-09T01:28:13.046Z,40.70
2023-04-09T01:29:17.603Z,41.75
2023-04-09T01:30:22.652Z,38.88
2023-04-09T01:31:30.088Z,40.70
2023-04-09T01:32:35.415Z,40.67
2023-04-09T01:33:38.458Z,44.63
2023-04-09T01:34:42.487Z,41.75
2023-04-09T01:35:46.718Z,46.15
2023-04-09T01:36:53.123Z,44.03
2023-04-09T01:37:55.844Z,43.00
2023-04-09T01:38:58.609Z,42.80
2023-04-09T01:40:00.403Z,41.67
2023-04-09T01:41:04.507Z,42.72
2023-04-09T01:42:09.673Z,41.05
2023-04-09T01:43:14.985Z,44.75
2023-04-09T01:44:17.834Z,39.97
2023-04-09T01:45:22.034Z,42.55
2023-04-09T01:46:25.471Z,40.47
2023-04-09T01:47:28.738Z,43.60
2023-04-09T01:48:31.567Z,43.88
2023-04-09T01:49:34.274Z,43.90
2023-04-09T01:50:35.881Z,41.80
2023-04-09T01:51:38.933Z,43.65
2023-04-09T01:52:41.190Z,40.25
2023-04-09T01:53:43.799Z,40.85
2023-04-09T01:54:45.293Z,38.30
2023-04-09T01:55:47.831Z,42.35
2023-04-09T01:56:49.462Z,39.90
2023-04-09T01:57:51.929Z,39.85
2023-04-09T01:58:55.026Z,40.72
2023-04-09T01:59:57.772Z,41.00
2023-04-09T02:01:05.606Z,43.08
2023-04-09T02:02:13.189Z,43.28
2023-04-09T02:03:18.850Z,40.33
2023-04-09T02:04:25.115Z,43.10
2023-04-09T02:05:31.808Z,44.85
2023-04-09T02:06:40.110Z,47.40
2023-04-09T02:07:45.425Z,43.17
2023-04-09T02:08:48.785Z,43.03
2023-04-09T02:09:53.291Z,46.47
2023-04-09T02:11:03.255Z,43.88
2023-04-09T02:12:07.046Z,42.03
2023-04-09T02:13:12.649Z,42.65
2023-04-09T02:14:16.302Z,41.78
2023-04-09T02:15:21.314Z,42.88
2023-04-09T02:16:23.392Z,43.70
2023-04-09T02:17:25.913Z,43.25
2023-04-09T02:18:29.539Z,41.40
2023-04-09T02:19:42.215Z,42.97
2023-04-09T02:20:43.801Z,41.15
2023-04-09T02:21:47.113Z,45.13
2023-04-09T02:22:48.761Z,43.97
2023-04-09T02:23:51.307Z,46.88
2023-04-09T02:24:52.880Z,40.88
2023-04-09T02:25:55.797Z,43.03
2023-04-09T02:26:57.854Z,42.50
2023-04-09T02:28:00.358Z,46.65
2023-04-09T02:29:01.944Z,45.92
2023-04-09T02:30:06.810Z,46.30
2023-04-09T02:31:08.386Z,40.15
2023-04-09T02:32:10.966Z,43.95
2023-04-09T02:33:12.500Z,42.58
2023-04-09T02:34:15.041Z,45.17
2023-04-09T02:35:16.582Z,46.45
2023-04-09T02:36:19.094Z,40.83
2023-04-09T02:37:20.775Z,45.28
2023-04-09T02:38:23.408Z,41.35
2023-04-09T02:39:25.139Z,47.67
2023-04-09T02:40:27.981Z,47.05
2023-04-09T02:41:31.744Z,43.40
2023-04-09T02:42:34.412Z,41.67
2023-04-09T02:43:36.162Z,42.72
2023-04-09T02:44:38.624Z,41.70
2023-04-09T02:45:42.488Z,44.75
2023-04-09T02:46:45.973Z,41.38
2023-04-09T02:47:47.583Z,43.15
2023-04-09T02:48:50.399Z,40.50
2023-04-09T02:49:52.212Z,46.08
2023-04-09T02:50:55.198Z,43.17
2023-04-09T02:51:56.761Z,41.40
2023-04-09T02:52:59.792Z,43.22
2023-04-09T02:54:01.547Z,49.17
2023-04-09T02:55:04.225Z,46.45
2023-04-09T02:56:06.084Z,44.65
2023-04-09T02:57:08.598Z,45.83
2023-04-09T02:58:10.221Z,41.10
2023-04-09T02:59:12.760Z,45.38
2023-04-09T03:00:14.938Z,42.78
2023-04-09T03:01:18.863Z,42.58
2023-04-09T03:02:20.826Z,42.72
2023-04-09T03:03:23.622Z,43.00
2023-04-09T03:04:25.450Z,43.58
2023-04-09T03:05:28.097Z,47.15
2023-04-09T03:06:29.647Z,41.30
2023-04-09T03:07:32.161Z,41.63
2023-04-09T03:08:33.713Z,40.47
2023-04-09T03:09:36.248Z,44.35
2023-04-09T03:10:37.872Z,46.75
2023-04-09T03:11:40.341Z,46.72
2023-04-09T03:12:44.519Z,49.08
2023-04-09T03:13:47.038Z,41.85
2023-04-09T03:14:48.776Z,46.10
2023-04-09T03:15:52.779Z,46.17
2023-04-09T03:16:55.663Z,46.95
2023-04-09T03:17:58.185Z,45.40
2023-04-09T03:18:59.701Z,41.33
2023-04-09T03:20:02.216Z,49.83
2023-04-09T03:21:07.150Z,48.20
2023-04-09T03:22:08.708Z,49.83
2023-04-09T03:23:11.495Z,46.85
2023-04-09T03:24:13.005Z,47.50
2023-04-09T03:25:15.797Z,42.33
2023-04-09T03:26:17.390Z,47.45
2023-04-09T03:27:19.846Z,46.67
2023-04-09T03:28:21.419Z,46.67
2023-04-09T03:29:23.900Z,46.55
2023-04-09T03:30:25.710Z,46.72
2023-04-09T03:31:28.228Z,47.05
2023-04-09T03:32:31.187Z,52.38
2023-04-09T03:33:33.672Z,47.90
2023-04-09T03:34:35.446Z,46.17
2023-04-09T03:35:37.988Z,44.97
2023-04-09T03:36:40.559Z,44.70
2023-04-09T03:37:42.272Z,47.22
2023-04-09T03:38:44.760Z,47.38
2023-04-09T03:39:46.333Z,51.00
2023-04-09T03:40:48.831Z,44.63
2023-04-09T03:41:50.559Z,45.00
2023-04-09T03:42:52.986Z,46.15
2023-04-09T03:43:54.493Z,44.92
2023-04-09T03:44:56.999Z,43.05
2023-04-09T03:45:58.691Z,44.22
2023-04-09T03:47:01.246Z,44.30
2023-04-09T03:48:04.338Z,45.17
2023-04-09T03:49:06.830Z,42.10
2023-04-09T03:50:09.110Z,49.58
2023-04-09T03:51:12.919Z,48.20
2023-04-09T03:52:15.372Z,43.33
2023-04-09T03:53:18.000Z,45.92
2023-04-09T03:54:19.499Z,45.53
2023-04-09T03:55:22.120Z,46.30
2023-04-09T03:56:23.660Z,46.38
2023-04-09T03:57:26.137Z,45.70
2023-04-09T03:58:27.638Z,43.47
2023-04-09T03:59:30.397Z,44.80
2023-04-09T04:00:32.075Z,45.17
2023-04-09T04:01:34.931Z,46.47
2023-04-09T04:02:36.985Z,43.15
2023-04-09T04:03:41.092Z,47.13
2023-04-09T04:04:43.065Z,44.35
2023-04-09T04:05:45.607Z,47.15
2023-04-09T04:06:47.161Z,46.75
2023-04-09T04:07:49.726Z,42.75
2023-04-09T04:08:52.359Z,46.42
2023-04-09T04:09:55.043Z,47.25
2023-04-09T04:10:56.523Z,40.00
2023-04-09T04:11:59.094Z,41.47
2023-04-09T04:13:02.058Z,46.33
2023-04-09T04:14:04.602Z,46.53
2023-04-09T04:15:07.291Z,48.25
2023-04-09T04:16:10.656Z,43.25
2023-04-09T04:17:12.265Z,45.13
2023-04-09T04:18:14.904Z,42.03
2023-04-09T04:19:17.729Z,41.60
2023-04-09T04:20:20.574Z,43.40
2023-04-09T04:21:22.145Z,41.40
2023-04-09T04:22:26.255Z,45.65
2023-04-09T04:23:27.974Z,44.20
2023-04-09T04:24:30.436Z,43.15
2023-04-09T04:25:32.025Z,43.55
2023-04-09T04:26:34.524Z,43.03
2023-04-09T04:27:36.169Z,46.22
2023-04-09T04:28:39.573Z,45.30
2023-04-09T04:29:41.187Z,45.38
2023-04-09T04:30:43.738Z,42.05
2023-04-09T04:31:45.340Z,47.15
2023-04-09T04:32:48.245Z,43.17
2023-04-09T04:33:49.924Z,44.08
2023-04-09T04:34:53.802Z,41.88
2023-04-09T04:36:04.390Z,42.63
2023-04-09T04:37:06.863Z,35.95
2023-04-09T04:38:08.511Z,40.13
2023-04-09T04:39:13.849Z,44.97
2023-04-09T04:40:15.438Z,45.63
2023-04-09T04:41:18.091Z,43.30
2023-04-09T04:42:20.020Z,44.78
2023-04-09T04:43:22.510Z,46.40
2023-04-09T04:44:24.062Z,45.67
2023-04-09T04:45:26.629Z,43.83
2023-04-09T04:46:28.127Z,45.28
2023-04-09T04:47:30.640Z,42.10
2023-04-09T04:48:32.201Z,45.15
2023-04-09T04:49:34.681Z,44.13
2023-04-09T04:50:37.502Z,45.00
2023-04-09T04:51:39.949Z,39.30
2023-04-09T04:52:41.458Z,42.22
2023-04-09T04:53:43.975Z,42.67
2023-04-09T04:54:45.494Z,45.88
2023-04-09T04:55:47.954Z,43.83
2023-04-09T04:56:49.513Z,44.78
2023-04-09T04:57:52.443Z,43.88
2023-04-09T04:58:54.375Z,42.83
2023-04-09T04:59:56.938Z,43.95
2023-04-09T05:00:58.566Z,42.08
2023-04-09T05:02:02.586Z,43.10
2023-04-09T05:03:04.361Z,42.88
2023-04-09T05:04:07.042Z,43.28
2023-04-09T05:05:08.792Z,43.30
2023-04-09T05:06:12.609Z,41.70
2023-04-09T05:07:14.055Z,44.35
2023-04-09T05:08:16.499Z,43.15
2023-04-09T05:09:18.754Z,45.80
2023-04-09T05:10:22.003Z,45.33
2023-04-09T05:11:23.713Z,41.85
2023-04-09T05:12:26.272Z,40.75
2023-04-09T05:13:27.780Z,39.17
2023-04-09T05:14:30.274Z,45.85
2023-04-09T05:15:32.005Z,44.13
2023-04-09T05:16:34.592Z,43.85
2023-04-09T05:17:36.321Z,42.67
2023-04-09T05:18:38.785Z,46.10
2023-04-09T05:19:40.314Z,45.05
2023-04-09T05:20:42.838Z,41.50
2023-04-09T05:21:47.271Z,41.63
2023-04-09T05:22:50.074Z,40.42
2023-04-09T05:23:52.503Z,45.83
2023-04-09T05:24:54.045Z,43.53
2023-04-09T05:25:56.493Z,46.47
2023-04-09T05:26:58.028Z,50.65
2023-04-09T05:28:03.964Z,48.33
2023-04-09T05:29:06.718Z,46.63
2023-04-09T05:30:09.309Z,47.30
2023-04-09T05:31:13.320Z,47.28
2023-04-09T05:32:16.073Z,47.50
2023-04-09T05:33:18.530Z,46.42
2023-04-09T05:34:20.216Z,43.78
2023-04-09T05:35:22.733Z,48.25
2023-04-09T05:36:24.392Z,48.30
2023-04-09T05:37:28.146Z,45.85
2023-04-09T05:38:32.069Z,46.15
2023-04-09T05:39:34.539Z,48.22
2023-04-09T05:40:36.258Z,45.92
2023-04-09T05:41:38.835Z,46.42
2023-04-09T05:42:40.530Z,47.53
2023-04-09T05:43:43.652Z,46.42
2023-04-09T05:44:45.258Z,63.30
2023-04-09T05:45:47.729Z,51.85
2023-04-09T05:46:50.249Z,53.30
2023-04-09T05:47:52.863Z,51.40
2023-04-09T05:48:56.371Z,50.72
2023-04-09T05:49:58.823Z,50.35
2023-04-09T05:51:01.009Z,48.00
2023-04-09T05:52:03.664Z,46.33
2023-04-09T05:53:06.735Z,50.30
2023-04-09T05:54:09.140Z,50.33
2023-04-09T05:55:10.967Z,42.95
2023-04-09T05:56:17.111Z,48.55
2023-04-09T05:57:18.657Z,52.00
2023-04-09T05:58:21.580Z,50.67
2023-04-09T05:59:23.119Z,50.85
2023-04-09T06:00:25.718Z,46.75
2023-04-09T06:01:27.831Z,47.15
2023-04-09T06:02:30.420Z,46.85
2023-04-09T06:03:32.152Z,47.08
2023-04-09T06:04:34.699Z,49.47
2023-04-09T06:05:36.256Z,44.83
2023-04-09T06:06:39.651Z,50.78
2023-04-09T06:07:41.294Z,45.45
2023-04-09T06:08:45.576Z,44.78
2023-04-09T06:09:47.095Z,46.88
2023-04-09T06:10:49.713Z,49.45
2023-04-09T06:11:51.223Z,49.20
2023-04-09T06:12:53.839Z,49.78
2023-04-09T06:13:55.371Z,53.38
2023-04-09T06:14:57.811Z,47.17
2023-04-09T06:15:59.413Z,48.63
2023-04-09T06:17:01.927Z,48.38
2023-04-09T06:18:03.467Z,49.55
2023-04-09T06:19:06.326Z,49.83
2023-04-09T06:20:08.846Z,46.92
2023-04-09T06:21:13.451Z,50.15
2023-04-09T06:22:15.975Z,48.55
2023-04-09T06:23:17.476Z,45.75
2023-04-09T06:24:21.460Z,56.95
2023-04-09T06:25:23.982Z,45.97
2023-04-09T06:26:25.865Z,44.33
2023-04-09T06:27:28.265Z,48.40
2023-04-09T06:28:29.758Z,45.97
2023-04-09T06:29:32.222Z,49.47
2023-04-09T06:30:33.897Z,49.10
2023-04-09T06:31:36.457Z,46.65
2023-04-09T06:32:51.028Z,49.38
2023-04-09T06:33:56.338Z,45.45
2023-04-09T06:34:58.165Z,47.55
2023-04-09T06:36:00.903Z,47.95
2023-04-09T06:37:02.470Z,43.42
2023-04-09T06:38:04.894Z,41.38
2023-04-09T06:39:06.669Z,44.67
2023-04-09T06:40:11.932Z,43.60
2023-04-09T06:41:14.873Z,42.95
2023-04-09T06:42:17.301Z,41.20
2023-04-09T06:43:18.826Z,44.70
2023-04-09T06:44:21.480Z,43.85
2023-04-09T06:45:23.204Z,43.40
2023-04-09T06:46:25.986Z,40.70
2023-04-09T06:47:27.516Z,42.03
2023-04-09T06:48:33.201Z,39.50
2023-04-09T06:49:34.731Z,41.28
2023-04-09T06:50:37.285Z,40.90
2023-04-09T06:51:38.907Z,41.53
2023-04-09T06:52:41.545Z,43.45
2023-04-09T06:53:44.075Z,41.40
2023-04-09T06:54:46.185Z,42.22
2023-04-09T06:55:50.309Z,39.95
2023-04-09T06:56:51.981Z,40.92
2023-04-09T06:57:54.451Z,40.33
2023-04-09T06:58:56.912Z,41.42
2023-04-09T06:59:58.421Z,42.90
2023-04-09T07:01:01.120Z,40.72
2023-04-09T07:02:02.793Z,41.42
2023-04-09T07:03:08.149Z,40.08
2023-04-09T07:04:09.919Z,39.13
2023-04-09T07:05:13.108Z,42.83
2023-04-09T07:06:14.737Z,45.65
2023-04-09T07:07:17.223Z,38.88
2023-04-09T07:08:18.827Z,44.10
2023-04-09T07:09:21.358Z,39.63
2023-04-09T07:10:22.822Z,41.92
2023-04-09T07:11:26.694Z,40.08
2023-04-09T07:12:28.251Z,39.40
2023-04-09T07:13:31.295Z,40.72
2023-04-09T07:14:33.031Z,40.50
2023-04-09T07:15:35.570Z,40.03
2023-04-09T07:16:37.134Z,43.42
2023-04-09T07:17:39.748Z,40.85
2023-04-09T07:18:42.414Z,37.75
2023-04-09T07:19:43.919Z,42.15
2023-04-09T07:20:46.371Z,41.45
2023-04-09T07:21:48.791Z,42.63
2023-04-09T07:22:51.344Z,35.00
2023-04-09T07:23:53.059Z,41.92
2023-04-09T07:24:56.499Z,40.70
2023-04-09T07:25:58.958Z,36.03
2023-04-09T07:27:04.949Z,37.85
2023-04-09T07:28:07.481Z,40.35
2023-04-09T07:29:09.072Z,36.85
2023-04-09T07:30:12.025Z,44.08
2023-04-09T07:31:15.412Z,40.55
2023-04-09T07:32:17.176Z,42.25
2023-04-09T07:33:19.701Z,43.50
2023-04-09T07:34:21.607Z,39.53
2023-04-09T07:35:24.100Z,40.63
2023-04-09T07:36:26.595Z,37.80
2023-04-09T07:37:29.063Z,38.30
2023-04-09T07:38:31.608Z,36.53
2023-04-09T07:39:33.146Z,39.33
2023-04-09T07:40:36.681Z,39.53
2023-04-09T07:41:38.313Z,38.08
2023-04-09T07:42:42.453Z,39.08
2023-04-09T07:43:45.021Z,38.47
2023-04-09T07:44:47.506Z,42.75
2023-04-09T07:45:51.306Z,39.80
2023-04-09T07:46:52.880Z,39.65
2023-04-09T07:47:55.538Z,41.83
2023-04-09T07:48:58.050Z,39.97
2023-04-09T07:50:00.601Z,41.47
2023-04-09T07:51:03.141Z,44.83
2023-04-09T07:52:05.676Z,40.45
2023-04-09T07:53:10.580Z,40.30
2023-04-09T07:54:12.982Z,36.80
2023-04-09T07:55:16.741Z,39.65
2023-04-09T07:56:18.872Z,41.10
2023-04-09T07:57:21.354Z,43.05
2023-04-09T07:58:24.174Z,38.65
2023-04-09T07:59:27.610Z,40.25
2023-04-09T08:00:30.088Z,39.65
2023-04-09T08:01:31.594Z,35.72
2023-04-09T08:02:34.204Z,39.85
2023-04-09T08:03:36.302Z,35.50
2023-04-09T08:04:39.145Z,40.05
2023-04-09T08:05:41.248Z,37.10
2023-04-09T08:06:46.686Z,39.30
2023-04-09T08:07:49.144Z,37.40
2023-04-09T08:08:50.868Z,41.25
2023-04-09T08:09:53.470Z,39.85
2023-04-09T08:10:56.186Z,40.22
2023-04-09T08:11:58.642Z,38.38
2023-04-09T08:13:00.356Z,37.53
2023-04-09T08:14:06.163Z,38.55
2023-04-09T08:15:08.598Z,43.50
2023-04-09T08:16:11.079Z,40.60
2023-04-09T08:17:12.682Z,41.75
2023-04-09T08:18:15.067Z,43.35
2023-04-09T08:19:17.497Z,42.33
2023-04-09T08:20:19.973Z,42.95
2023-04-09T08:21:21.557Z,40.22
2023-04-09T08:22:23.945Z,43.50
2023-04-09T08:23:25.913Z,49.88
2023-04-09T08:24:28.346Z,51.47
2023-04-09T08:25:29.876Z,49.75
2023-04-09T08:26:32.715Z,54.05
2023-04-09T08:27:36.060Z,55.33
2023-04-09T08:28:37.797Z,55.13
2023-04-09T08:29:42.583Z,49.22
2023-04-09T08:30:44.682Z,53.03
2023-04-09T08:31:47.138Z,46.83
2023-04-09T08:32:50.044Z,51.72
2023-04-09T08:33:53.445Z,54.08
2023-04-09T08:34:56.068Z,46.08
2023-04-09T08:35:57.642Z,45.53
2023-04-09T08:37:00.724Z,42.45
2023-04-09T08:38:02.231Z,44.67
2023-04-09T08:39:04.864Z,44.65
2023-04-09T08:40:08.731Z,37.55
2023-04-09T08:41:18.676Z,39.13
2023-04-09T08:42:23.960Z,43.47
2023-04-09T08:43:41.891Z,39.30
2023-04-09T08:44:51.266Z,40.13
2023-04-09T08:45:53.993Z,40.95
2023-04-09T08:46:58.332Z,41.40
2023-04-09T08:48:04.150Z,40.10
2023-04-09T08:49:06.993Z,42.85
2023-04-09T08:50:09.205Z,39.22
2023-04-09T08:51:14.589Z,39.13
2023-04-09T08:52:21.736Z,43.00
2023-04-09T08:53:24.447Z,40.70
2023-04-09T08:54:26.996Z,39.50
2023-04-09T08:55:28.701Z,39.83
2023-04-09T08:56:31.453Z,38.50
2023-04-09T08:57:37.496Z,37.22
2023-04-09T08:58:43.582Z,35.58
2023-04-09T08:59:46.563Z,33.95
2023-04-09T09:00:49.702Z,37.25
2023-04-09T09:02:11.241Z,35.70
2023-04-09T09:03:14.866Z,35.10
2023-04-09T09:04:16.606Z,36.95
2023-04-09T09:05:37.015Z,34.80
2023-04-09T09:06:40.036Z,37.78
2023-04-09T09:07:54.728Z,37.17
2023-04-09T09:09:05.049Z,37.65
2023-04-09T09:10:08.719Z,36.53
2023-04-09T09:11:10.229Z,37.63
2023-04-09T09:12:12.803Z,38.58
2023-04-09T09:13:20.000Z,38.22
2023-04-09T09:14:22.442Z,36.63
2023-04-09T09:15:28.821Z,37.72
2023-04-09T09:16:34.711Z,38.03
2023-04-09T09:17:55.899Z,40.47
2023-04-09T09:18:58.637Z,37.60
2023-04-09T09:20:19.930Z,38.58
2023-04-09T09:21:22.014Z,39.80
2023-04-09T09:22:25.942Z,34.13
2023-04-09T09:23:36.493Z,36.28
2023-04-09T09:24:48.476Z,36.13
2023-04-09T09:25:51.859Z,36.78
2023-04-09T09:26:55.656Z,36.75
2023-04-09T09:28:07.396Z,36.50
2023-04-09T09:29:10.605Z,37.20
2023-04-09T09:30:21.988Z,34.58
2023-04-09T09:31:24.567Z,38.78
2023-04-09T09:32:27.947Z,36.17
2023-04-09T09:33:34.460Z,32.65
2023-04-09T09:34:37.036Z,30.48
2023-04-09T09:35:49.716Z,34.92
2023-04-09T09:36:52.314Z,33.75
2023-04-09T09:38:04.221Z,32.53
2023-04-09T09:39:10.267Z,32.10
2023-04-09T09:40:27.028Z,31.67
2023-04-09T09:41:29.530Z,31.50
2023-04-09T09:42:33.050Z,29.42
2023-04-09T09:43:41.520Z,30.17
2023-04-09T09:44:43.983Z,34.17
2023-04-09T09:45:47.030Z,32.78
2023-04-09T09:46:49.599Z,36.67
2023-04-09T09:47:53.090Z,32.30
2023-04-09T09:48:55.950Z,34.38
2023-04-09T09:49:57.562Z,34.08
2023-04-09T09:51:01.437Z,35.65
2023-04-09T09:52:09.782Z,33.58
2023-04-09T09:53:12.141Z,33.22
2023-04-09T09:54:19.472Z,33.95
2023-04-09T09:55:24.133Z,30.40
2023-04-09T09:56:32.614Z,33.30
2023-04-09T09:57:40.356Z,31.67
2023-04-09T09:58:46.726Z,31.42
2023-04-09T09:59:54.991Z,31.80
2023-04-09T10:00:57.515Z,34.60
2023-04-09T10:02:02.625Z,32.20
2023-04-09T10:03:13.138Z,36.78
2023-04-09T10:04:19.025Z,28.90
2023-04-09T10:05:25.005Z,32.63
2023-04-09T10:06:28.500Z,31.83
2023-04-09T10:07:33.204Z,33.17
2023-04-09T10:08:38.164Z,33.58
2023-04-09T10:09:43.443Z,34.03
2023-04-09T10:10:48.803Z,32.60
2023-04-09T10:11:51.487Z,29.75
2023-04-09T10:12:53.129Z,33.30
2023-04-09T10:13:58.454Z,35.28
2023-04-09T10:15:05.157Z,32.70
2023-04-09T10:16:08.780Z,30.15
2023-04-09T10:17:11.664Z,32.92
2023-04-09T10:18:16.012Z,34.90
2023-04-09T10:19:17.922Z,32.92
2023-04-09T10:20:27.101Z,33.22
2023-04-09T10:21:37.699Z,31.98
2023-04-09T10:22:39.920Z,32.72
2023-04-09T10:23:44.905Z,29.85
2023-04-09T10:24:47.318Z,31.17
2023-04-09T10:25:49.890Z,31.88
2023-04-09T10:26:55.364Z,28.52
2023-04-09T10:28:01.482Z,31.35
2023-04-09T10:29:06.816Z,30.85
2023-04-09T10:30:10.636Z,31.20
2023-04-09T10:31:13.368Z,30.30
2023-04-09T10:32:21.543Z,30.52
2023-04-09T10:33:27.871Z,31.85
2023-04-09T10:34:30.565Z,30.83
2023-04-09T10:35:32.143Z,29.92
2023-04-09T10:36:34.626Z,28.17
2023-04-09T10:37:37.091Z,28.45
2023-04-09T10:38:41.133Z,28.50
2023-04-09T10:39:47.277Z,27.85
2023-04-09T10:40:50.775Z,26.45
2023-04-09T10:41:55.561Z,26.83
2023-04-09T10:42:59.394Z,29.95
2023-04-09T10:44:01.829Z,25.02
2023-04-09T10:45:10.661Z,25.20
2023-04-09T10:46:29.494Z,25.17
2023-04-09T10:47:33.994Z,24.23
2023-04-09T10:48:37.030Z,24.15
2023-04-09T10:49:40.656Z,21.23
2023-04-09T10:50:45.086Z,22.20
2023-04-09T10:51:50.900Z,21.38
2023-04-09T10:52:54.944Z,21.80
2023-04-09T10:53:56.404Z,23.17
2023-04-09T10:54:58.920Z,21.23
2023-04-09T10:56:01.959Z,20.92
2023-04-09T10:57:20.174Z,21.10
2023-04-09T10:58:22.844Z,21.25
2023-04-09T10:59:24.432Z,20.20
2023-04-09T11:00:26.880Z,23.73
2023-04-09T11:01:28.508Z,21.30
2023-04-09T11:03:12.118Z,21.80
2023-04-09T11:04:21.576Z,21.63
2023-04-09T11:05:28.957Z,22.23
2023-04-09T11:06:32.327Z,20.73
2023-04-09T11:07:40.465Z,20.17
2023-04-09T11:08:45.340Z,19.77
2023-04-09T11:09:47.657Z,17.52
2023-04-09T11:10:52.254Z,20.60
2023-04-09T11:11:53.957Z,18.55
2023-04-09T11:12:56.389Z,19.08
2023-04-09T11:13:59.834Z,18.58
2023-04-09T11:15:01.318Z,19.23
2023-04-09T11:16:06.854Z,20.25
2023-04-09T11:17:08.833Z,19.95
2023-04-09T11:18:15.484Z,17.80
2023-04-09T11:19:19.060Z,18.52
2023-04-09T11:20:23.321Z,21.23
2023-04-09T11:21:27.713Z,19.33
2023-04-09T11:22:30.293Z,18.83
2023-04-09T11:23:34.052Z,20.85
2023-04-09T11:24:41.956Z,20.33
2023-04-09T11:25:49.410Z,19.75
2023-04-09T11:26:51.281Z,20.25
2023-04-09T11:27:54.382Z,19.52
2023-04-09T11:28:58.604Z,18.77
2023-04-09T11:30:00.090Z,19.45
2023-04-09T11:31:06.216Z,18.58
2023-04-09T11:32:07.810Z,18.70
2023-04-09T11:33:10.768Z,19.65
2023-04-09T11:34:13.539Z,20.27
2023-04-09T11:35:17.826Z,20.73
2023-04-09T11:36:20.443Z,19.08
2023-04-09T11:37:22.549Z,18.83
2023-04-09T11:38:27.598Z,18.75
2023-04-09T11:39:29.178Z,19.17
2023-04-09T11:40:31.666Z,18.23
2023-04-09T11:41:33.956Z,20.90
2023-04-09T11:42:37.818Z,20.35
2023-04-09T11:43:40.300Z,19.13
2023-04-09T11:44:42.189Z,18.65
2023-04-09T11:45:47.088Z,20.63
2023-04-09T11:46:49.167Z,18.23
2023-04-09T11:47:52.641Z,19.58
2023-04-09T11:48:55.867Z,18.40
2023-04-09T11:49:58.444Z,17.75
2023-04-09T11:51:03.964Z,17.70
2023-04-09T11:52:05.986Z,18.25
2023-04-09T11:53:19.139Z,18.85
2023-04-09T11:54:20.805Z,17.83
2023-04-09T11:55:27.143Z,18.05
2023-04-09T11:56:29.245Z,19.20
2023-04-09T11:57:43.813Z,19.08
2023-04-09T11:58:47.477Z,19.10
2023-04-09T11:59:49.111Z,18.50
2023-04-09T12:00:53.989Z,19.17
2023-04-09T12:01:58.131Z,20.80
2023-04-09T12:03:03.605Z,20.35
2023-04-09T12:04:06.948Z,21.00
2023-04-09T12:05:11.811Z,22.73
2023-04-09T12:06:16.415Z,20.95
2023-04-09T12:07:17.939Z,19.85
2023-04-09T12:08:25.449Z,19.33
2023-04-09T12:09:27.145Z,19.85
2023-04-09T12:10:31.039Z,19.85
2023-04-09T12:11:32.662Z,21.23
2023-04-09T12:12:42.616Z,19.02
2023-04-09T12:13:46.910Z,20.20
2023-04-09T12:14:48.427Z,21.38
2023-04-09T12:15:51.405Z,19.27
2023-04-09T12:16:53.027Z,21.48
2023-04-09T12:17:56.766Z,19.23
2023-04-09T12:19:01.005Z,21.02
2023-04-09T12:20:03.518Z,20.58
2023-04-09T12:21:06.112Z,19.85
2023-04-09T12:22:09.844Z,19.15
2023-04-09T12:23:13.885Z,17.08
2023-04-09T12:24:16.965Z,18.10
2023-04-09T12:25:19.394Z,16.42
2023-04-09T12:26:21.284Z,17.55
2023-04-09T12:27:24.026Z,17.60
2023-04-09T12:28:25.496Z,19.55
2023-04-09T12:29:29.848Z,19.65
2023-04-09T12:30:32.766Z,21.48
2023-04-09T12:31:34.291Z,20.00
2023-04-09T12:32:37.139Z,20.20
2023-04-09T12:33:40.357Z,19.88
2023-04-09T12:34:41.985Z,20.27
2023-04-09T12:35:44.764Z,20.17
2023-04-09T12:36:46.400Z,22.55
2023-04-09T12:37:50.713Z,21.17
2023-04-09T12:38:53.420Z,19.33
2023-04-09T12:39:55.372Z,18.80
2023-04-09T12:40:57.842Z,19.38
2023-04-09T12:41:59.328Z,19.58
2023-04-09T12:43:02.534Z,20.13
2023-04-09T12:44:04.927Z,20.52
2023-04-09T12:45:08.921Z,19.30
2023-04-09T12:46:10.888Z,19.70
2023-04-09T12:47:13.357Z,19.30
2023-04-09T12:48:15.816Z,17.27
2023-04-09T12:49:17.338Z,17.38
2023-04-09T12:50:21.935Z,16.98
2023-04-09T12:51:23.847Z,16.75
2023-04-09T12:52:26.436Z,16.45
2023-04-09T12:53:31.970Z,15.82
2023-04-09T12:54:33.519Z,14.77
2023-04-09T12:55:36.088Z,16.33
2023-04-09T12:56:37.794Z,26.20
2023-04-09T12:57:42.435Z,17.73
2023-04-09T12:58:44.145Z,16.27
2023-04-09T12:59:46.807Z,16.15
2023-04-09T13:00:51.911Z,16.67
2023-04-09T13:01:53.707Z,16.95
2023-04-09T13:02:56.714Z,15.00
2023-04-09T13:03:58.916Z,16.38
2023-04-09T13:05:01.793Z,17.13
2023-04-09T13:06:03.679Z,16.83
2023-04-09T13:07:06.761Z,17.27
2023-04-09T13:08:09.534Z,19.75
2023-04-09T13:09:12.501Z,20.80
2023-04-09T13:10:18.084Z,20.98
2023-04-09T13:11:22.791Z,20.58
2023-04-09T13:12:25.575Z,19.58
2023-04-09T13:13:28.626Z,18.25
2023-04-09T13:14:31.582Z,17.85
2023-04-09T13:15:33.147Z,18.92
2023-04-09T13:16:35.722Z,18.83
2023-04-09T13:17:37.325Z,18.92
2023-04-09T13:18:44.611Z,17.15
2023-04-09T13:19:46.497Z,21.15
2023-04-09T13:20:50.569Z,17.40
2023-04-09T13:21:52.348Z,19.70
2023-04-09T13:22:54.781Z,18.98
2023-04-09T13:23:56.233Z,18.90
2023-04-09T13:24:59.978Z,20.05
2023-04-09T13:26:01.550Z,18.95
2023-04-09T13:27:04.651Z,19.17
2023-04-09T13:28:06.508Z,18.60
2023-04-09T13:29:12.052Z,17.90
2023-04-09T13:30:14.724Z,17.90
2023-04-09T13:31:16.483Z,19.48
2023-04-09T13:32:21.071Z,17.52
2023-04-09T13:33:23.075Z,17.38
2023-04-09T13:34:25.970Z,16.60
2023-04-09T13:35:27.776Z,17.13
2023-04-09T13:36:31.409Z,17.77
2023-04-09T13:37:33.899Z,17.88
2023-04-09T13:38:35.623Z,16.33
2023-04-09T13:39:38.091Z,16.35